Madoi, China
Current Conditions -  °F | °C
As of 2:00 PM on Saturday 29 Nov 2014 (Local Time) from ZLLL Reporting Station
Clear Clear  
Wind Chill: 28°   Ceiling: Unl
Heat Index: 36°   Visibility: 6mi
Dew Point: 14°   Wind: 11mph
Humidity: 41%   Direction: 70°ENE
Pressure: 29.94"   Gusts: NA
Location:  34.92°N, 98.22°E
Report Text: ZLLL 290600Z 07005MPS 350V100 CAVOK 02/M10 Q1014 NOSIG
Loading
Personal Weather Stations






























Interactive Weather Map New forecast layout! Learn more

10-Day Weather Forecast

Advertisements
Track Severe Weather on mobile